Izmit, Turkey
Current Conditions -  °F | °C
As of 8:50 AM on Wednesday 28 Jan 2015 (Local Time) from LTBQ Reporting Station
Rain Showers Rain Showers  
Wind Chill: 45°   Ceiling: 500
Heat Index: 45°   Visibility: 0.81mi
Dew Point: 45°   Wind: 2mph
Humidity: 100%   Direction: NA
Pressure: 29.77"   Gusts: NA
Location:  40.77°N, 29.93°E
Report Text: LTBQ 280550Z VRB02KT 1300 R27/P1500U R09/P1500U -SHRA BCFG BKN005 BKN025 07/07 Q1008 NOSIG
Loading
Personal Weather Stations






























Interactive Weather Map New forecast layout! Learn more

10-Day Weather Forecast

Advertisements
Track Severe Weather on mobile